Tropical Cyclones
[Index]
Main Index Home Page Stock Weather Photos Extreme Storms Discussion Storm News and Storm Chasing Reports Tropical Cyclones / Hurricanes / Typhoons Weather Data and Links Wild Fires / Bushfires Weather Observation Techniques Weather Picture Catalogue Tornado Pictures and Reports Stock Video Footage and DVDs for sale
Season 1973-1974 Tropical Cyclone VERA Track Map
Season 1973-1974 Summaries: [BoM-AU] [JTWC-AU] [JTWC-SIO] [JTWC-SPAC] [JTWC-SH]
<<- Previous TC | BoM 1973-1974 Season | Next TC ->>

click for intensity scale information  Lat/long Grid: Show Hide

 Date Labels: Show Hide

Bureau of Meteorology Tropical Cyclone Data

Name: VERA
Number: 520 / 197374_10

17 Jan 1974 23:00 UTC to 21 Jan 1974 11:00 UTC

    date/time    lat    long    hPa   cat  kts
1974-01-17 23   20.2   149.4   1000                     
1974-01-18 05   19.6   148.7    997                     
1974-01-18 08   19.4   148.0    997                     
1974-01-18 11   18.9   147.8    998                     
1974-01-18 14   18.8   147.8    996                     
1974-01-18 17   18.6   148.0    996                     
1974-01-18 23   18.5   148.6    998                     
1974-01-19 02   18.3   148.9    997                     
1974-01-19 05   17.7   148.9    996                     
1974-01-19 08   17.0   149.2    996                     
1974-01-19 11   16.8   150.0    998                     
1974-01-19 14   16.8   151.0    999                     
1974-01-19 17   18.4   152.7    990    1                
1974-01-19 23   18.6   153.6    990    1                
1974-01-20 05   19.2   155.1    988    1                
1974-01-20 11   20.2   157.0    988    1                
1974-01-20 17   21.2   158.7    986    1                
1974-01-20 23   22.4   160.5    988    1                
1974-01-21 02   22.8   161.5    990    1                
1974-01-21 05   23.0   162.5    993    1                
1974-01-21 11   23.7   164.6    998                     
Winds are 10-min average.

Tropical cyclone tracks developed by Michael Bath using data from the Bureau of Meteorology and Google Maps.


[Australian Severe Weather index] [Copyright Notice] [Email Contacts] [Search This Site] [Privacy Policy]
Document: tropical_cyclone_vera.htm Updated: 30 May 2013